createdAt,value
2022-09-25T00:02:06.799Z,1.53
2022-09-25T00:04:35.312Z,1.30
2022-09-25T00:07:05.213Z,1.30
2022-09-25T00:09:33.573Z,1.30
2022-09-25T00:12:01.945Z,1.20
2022-09-25T00:14:30.362Z,1.40
2022-09-25T00:16:58.814Z,1.57
2022-09-25T00:19:44.777Z,1.23
2022-09-25T00:22:14.517Z,1.17
2022-09-25T00:24:43.098Z,1.33
2022-09-25T00:27:11.651Z,0.90
2022-09-25T00:29:40.674Z,1.10
2022-09-25T00:32:10.237Z,1.30
2022-09-25T00:34:38.950Z,1.13
2022-09-25T00:37:07.483Z,1.30
2022-09-25T00:39:37.168Z,1.20
2022-09-25T00:42:05.543Z,1.20
2022-09-25T00:44:56.355Z,1.07
2022-09-25T00:47:38.179Z,1.20
2022-09-25T00:50:12.783Z,1.10
2022-09-25T00:52:41.151Z,1.50
2022-09-25T00:55:12.584Z,1.37
2022-09-25T00:57:44.240Z,1.03
2022-09-25T01:00:13.861Z,1.03
2022-09-25T01:02:44.507Z,1.27
2022-09-25T01:05:14.741Z,1.37
2022-09-25T01:07:44.748Z,1.43
2022-09-25T01:10:15.075Z,1.50
2022-09-25T01:12:46.825Z,1.50
2022-09-25T01:15:16.737Z,1.67
2022-09-25T01:17:47.179Z,1.57
2022-09-25T01:20:19.470Z,1.30
2022-09-25T01:22:52.737Z,1.20
2022-09-25T01:25:30.835Z,1.30
2022-09-25T01:28:08.493Z,1.23
2022-09-25T01:30:40.611Z,1.70
2022-09-25T01:33:12.312Z,1.50
2022-09-25T01:35:46.847Z,1.37
2022-09-25T01:38:17.719Z,1.20
2022-09-25T01:40:51.037Z,1.33
2022-09-25T01:43:20.878Z,1.00
2022-09-25T01:45:51.933Z,1.10
2022-09-25T01:48:21.650Z,1.40
2022-09-25T01:50:51.795Z,1.60
2022-09-25T01:53:22.430Z,1.30
2022-09-25T01:55:53.698Z,1.80
2022-09-25T01:58:24.962Z,0.97
2022-09-25T02:00:58.121Z,1.20
2022-09-25T02:03:31.016Z,1.10
2022-09-25T02:06:02.455Z,1.10
2022-09-25T02:08:32.833Z,1.20
2022-09-25T02:11:02.382Z,0.90
2022-09-25T02:13:34.221Z,1.10
2022-09-25T02:16:06.520Z,1.30
2022-09-25T02:18:52.953Z,1.07
2022-09-25T02:21:26.276Z,1.10
2022-09-25T02:23:55.896Z,1.00
2022-09-25T02:26:27.622Z,1.40
2022-09-25T02:28:56.245Z,1.53
2022-09-25T02:31:29.709Z,1.20
2022-09-25T02:33:58.047Z,0.93
2022-09-25T02:36:26.345Z,1.40
2022-09-25T02:38:57.327Z,1.33
2022-09-25T02:41:31.999Z,1.40
2022-09-25T02:44:05.063Z,1.40
2022-09-25T02:46:41.038Z,0.80
2022-09-25T02:49:18.194Z,1.20
2022-09-25T02:51:49.302Z,1.23
2022-09-25T02:54:21.209Z,1.10
2022-09-25T02:56:52.625Z,1.23
2022-09-25T02:59:23.127Z,1.20
2022-09-25T03:01:53.442Z,1.43
2022-09-25T03:04:21.869Z,1.10
2022-09-25T03:06:50.195Z,1.30
2022-09-25T03:09:19.702Z,1.10
2022-09-25T03:11:48.114Z,1.13
2022-09-25T03:14:17.566Z,1.20
2022-09-25T03:16:50.549Z,1.30
2022-09-25T03:19:20.794Z,0.97
2022-09-25T03:21:49.239Z,1.47
2022-09-25T03:24:17.704Z,1.20
2022-09-25T03:26:47.009Z,1.20
2022-09-25T03:29:18.333Z,1.00
2022-09-25T03:31:46.649Z,1.00
2022-09-25T03:34:15.743Z,1.10
2022-09-25T03:36:47.553Z,0.83
2022-09-25T03:39:17.944Z,0.90
2022-09-25T03:41:47.885Z,0.83
2022-09-25T03:44:16.271Z,0.90
2022-09-25T03:46:44.499Z,0.80
2022-09-25T03:49:12.907Z,1.03
2022-09-25T03:51:43.160Z,0.77
2022-09-25T03:54:12.876Z,0.60
2022-09-25T03:56:41.741Z,0.77
2022-09-25T03:59:10.022Z,0.70
2022-09-25T04:01:38.753Z,0.70
2022-09-25T04:04:07.197Z,0.77
2022-09-25T04:06:35.859Z,0.80
2022-09-25T04:09:04.131Z,0.83
2022-09-25T04:11:34.936Z,0.77
2022-09-25T04:14:03.276Z,1.00
2022-09-25T04:16:31.913Z,0.60
2022-09-25T04:19:00.231Z,0.80
2022-09-25T04:21:28.746Z,0.90
2022-09-25T04:24:14.437Z,0.80
2022-09-25T04:26:44.259Z,0.80
2022-09-25T04:29:15.286Z,0.80
2022-09-25T04:31:43.606Z,1.13
2022-09-25T04:34:11.015Z,0.90
2022-09-25T04:36:39.307Z,1.10
2022-09-25T04:39:07.813Z,0.60
2022-09-25T04:41:36.042Z,0.70
2022-09-25T04:44:07.560Z,0.80
2022-09-25T04:46:35.972Z,0.90
2022-09-25T04:49:04.546Z,0.83
2022-09-25T04:51:32.767Z,0.70
2022-09-25T04:54:01.173Z,0.80
2022-09-25T04:56:29.457Z,0.80
2022-09-25T04:58:57.713Z,0.90
2022-09-25T05:01:27.834Z,1.30
2022-09-25T05:03:56.265Z,1.10
2022-09-25T05:06:27.972Z,1.10
2022-09-25T05:08:57.313Z,1.10
2022-09-25T05:11:25.600Z,0.80
2022-09-25T05:13:54.953Z,0.60
2022-09-25T05:16:24.356Z,1.00
2022-09-25T05:18:54.028Z,0.87
2022-09-25T05:21:22.305Z,1.27
2022-09-25T05:23:50.572Z,0.90
2022-09-25T05:26:19.010Z,1.10
2022-09-25T05:28:51.176Z,1.20
2022-09-25T05:31:19.560Z,1.10
2022-09-25T05:33:47.993Z,1.30
2022-09-25T05:36:18.821Z,1.53
2022-09-25T05:38:47.069Z,0.90
2022-09-25T05:41:15.365Z,1.07
2022-09-25T05:43:44.193Z,1.13
2022-09-25T05:46:13.300Z,1.00
2022-09-25T05:48:41.953Z,1.30
2022-09-25T05:51:10.181Z,1.17
2022-09-25T05:53:39.909Z,1.20
2022-09-25T05:56:09.032Z,1.60
2022-09-25T05:58:38.102Z,1.30
2022-09-25T06:01:07.448Z,1.50
2022-09-25T06:03:36.118Z,1.57
2022-09-25T06:06:06.536Z,1.60
2022-09-25T06:08:35.580Z,1.67
2022-09-25T06:11:05.714Z,1.50
2022-09-25T06:13:34.976Z,1.80
2022-09-25T06:16:03.921Z,1.10
2022-09-25T06:18:32.225Z,1.17
2022-09-25T06:21:02.548Z,1.33
2022-09-25T06:23:31.102Z,1.07
2022-09-25T06:26:02.916Z,1.13
2022-09-25T06:28:32.608Z,1.00
2022-09-25T06:31:02.165Z,0.93
2022-09-25T06:33:32.983Z,1.00
2022-09-25T06:36:01.420Z,0.83
2022-09-25T06:38:29.822Z,1.10
2022-09-25T06:41:00.790Z,0.97
2022-09-25T06:43:29.495Z,0.83
2022-09-25T06:46:03.635Z,1.10
2022-09-25T06:48:32.450Z,0.80
2022-09-25T06:51:01.782Z,0.90
2022-09-25T06:53:30.297Z,0.70
2022-09-25T06:55:59.932Z,0.80
2022-09-25T06:58:28.887Z,1.07
2022-09-25T07:00:57.542Z,1.03
2022-09-25T07:03:45.196Z,1.13
2022-09-25T07:06:14.963Z,1.03
2022-09-25T07:08:44.197Z,1.00
2022-09-25T07:11:14.229Z,1.20
2022-09-25T07:13:42.749Z,0.90
2022-09-25T07:16:14.121Z,1.30
2022-09-25T07:18:44.794Z,1.03
2022-09-25T07:21:13.907Z,0.97
2022-09-25T07:23:42.635Z,0.93
2022-09-25T07:26:11.556Z,1.17
2022-09-25T07:28:40.198Z,1.73
2022-09-25T07:31:12.558Z,1.23
2022-09-25T07:33:40.848Z,1.30
2022-09-25T07:36:10.892Z,1.30
2022-09-25T07:38:39.360Z,1.37
2022-09-25T07:41:08.204Z,1.10
2022-09-25T07:43:38.553Z,1.30
2022-09-25T07:46:06.961Z,1.00
2022-09-25T07:48:35.336Z,1.50
2022-09-25T07:51:03.729Z,1.50
2022-09-25T07:53:33.982Z,1.30
2022-09-25T07:56:06.432Z,1.27
2022-09-25T07:58:36.250Z,1.33
2022-09-25T08:01:05.713Z,1.30
2022-09-25T08:03:34.266Z,1.40
2022-09-25T08:06:03.220Z,1.10
2022-09-25T08:08:32.813Z,1.40
2022-09-25T08:11:02.725Z,1.33
2022-09-25T08:13:31.477Z,1.03
2022-09-25T08:15:59.882Z,1.10
2022-09-25T08:18:28.215Z,0.70
2022-09-25T08:20:56.546Z,0.93
2022-09-25T08:23:24.866Z,1.20
2022-09-25T08:25:54.565Z,0.73
2022-09-25T08:28:23.329Z,0.80
2022-09-25T08:30:51.873Z,1.80
2022-09-25T08:33:20.290Z,0.90
2022-09-25T08:35:56.408Z,0.70
2022-09-25T08:38:25.358Z,0.80
2022-09-25T08:40:56.810Z,1.07
2022-09-25T08:43:26.188Z,0.90
2022-09-25T08:46:14.144Z,0.93
2022-09-25T08:49:01.365Z,0.93
2022-09-25T08:51:30.150Z,0.90
2022-09-25T08:53:59.775Z,1.60
2022-09-25T08:56:30.404Z,0.80
2022-09-25T08:59:01.993Z,1.33
2022-09-25T09:01:32.351Z,0.90
2022-09-25T09:04:05.753Z,1.07
2022-09-25T09:06:35.100Z,0.80
2022-09-25T09:09:07.425Z,1.00
2022-09-25T09:11:38.450Z,1.03
2022-09-25T09:14:07.855Z,1.10
2022-09-25T09:16:39.345Z,1.40
2022-09-25T09:19:08.525Z,1.20
2022-09-25T09:21:37.764Z,0.90
2022-09-25T09:24:12.499Z,1.37
2022-09-25T09:26:49.982Z,0.60
2022-09-25T09:29:26.240Z,0.90
2022-09-25T09:32:00.000Z,1.00
2022-09-25T09:35:01.302Z,0.87
2022-09-25T09:37:29.323Z,0.90
2022-09-25T09:40:01.848Z,0.60
2022-09-25T09:42:47.782Z,0.80
2022-09-25T09:45:18.877Z,0.73
2022-09-25T09:47:50.495Z,0.90
2022-09-25T09:50:26.396Z,1.37
2022-09-25T09:52:58.148Z,0.93
2022-09-25T09:55:28.790Z,0.87
2022-09-25T09:58:03.638Z,0.77
2022-09-25T10:00:32.538Z,0.60
2022-09-25T10:03:02.737Z,0.83
2022-09-25T10:05:33.067Z,0.70
2022-09-25T10:08:01.421Z,0.60
2022-09-25T10:10:37.423Z,0.80
2022-09-25T10:13:10.247Z,0.77
2022-09-25T10:15:42.235Z,0.60
2022-09-25T10:18:10.964Z,0.77
2022-09-25T10:20:42.221Z,0.50
2022-09-25T10:23:19.201Z,0.53
2022-09-25T10:25:55.134Z,0.50
2022-09-25T10:28:28.324Z,0.50
2022-09-25T10:30:57.524Z,0.50
2022-09-25T10:33:26.608Z,0.87
2022-09-25T10:35:56.318Z,0.40
2022-09-25T10:38:31.221Z,0.77
2022-09-25T10:41:01.389Z,0.43
2022-09-25T10:43:31.278Z,0.60
2022-09-25T10:46:10.164Z,0.30
2022-09-25T10:48:57.270Z,0.63
2022-09-25T10:51:25.842Z,0.40
2022-09-25T10:53:55.257Z,0.70
2022-09-25T10:56:26.348Z,0.67
2022-09-25T10:58:57.895Z,0.60
2022-09-25T11:01:32.454Z,0.50
2022-09-25T11:04:01.535Z,0.60
2022-09-25T11:06:30.436Z,0.67
2022-09-25T11:09:05.364Z,0.50
2022-09-25T11:11:33.701Z,0.57
2022-09-25T11:14:05.473Z,0.60
2022-09-25T11:16:48.771Z,0.30
2022-09-25T11:19:18.427Z,0.30
2022-09-25T11:21:50.753Z,0.50
2022-09-25T11:24:22.378Z,0.50
2022-09-25T11:26:53.080Z,0.40
2022-09-25T11:29:25.433Z,0.67
2022-09-25T11:31:55.270Z,0.57
2022-09-25T11:34:28.051Z,0.40
2022-09-25T11:37:02.196Z,0.50
2022-09-25T11:39:51.596Z,0.40
2022-09-25T11:42:25.917Z,0.50
2022-09-25T11:44:59.427Z,0.40
2022-09-25T11:47:28.826Z,0.40
2022-09-25T11:49:58.547Z,0.30
2022-09-25T11:52:32.624Z,0.40
2022-09-25T11:55:11.476Z,0.40
2022-09-25T11:57:43.219Z,0.40
2022-09-25T12:00:16.813Z,0.30
2022-09-25T12:03:02.098Z,0.30
2022-09-25T12:05:41.218Z,0.43
2022-09-25T12:08:15.442Z,0.30
2022-09-25T12:10:48.068Z,0.30
2022-09-25T12:13:20.741Z,0.40
2022-09-25T12:15:55.215Z,0.30
2022-09-25T12:18:33.983Z,0.33
2022-09-25T12:21:04.474Z,0.50
2022-09-25T12:23:33.720Z,0.40
2022-09-25T12:26:08.486Z,0.55
2022-09-25T12:28:45.369Z,0.57
2022-09-25T12:31:17.574Z,0.40
2022-09-25T12:33:49.895Z,0.30
2022-09-25T12:36:20.892Z,0.45
2022-09-25T12:38:55.311Z,0.43
2022-09-25T12:41:30.065Z,0.35
2022-09-25T12:44:03.032Z,0.50
2022-09-25T12:46:34.638Z,0.45
2022-09-25T12:49:04.241Z,0.60
2022-09-25T12:51:36.325Z,0.20
2022-09-25T12:54:08.415Z,0.40
2022-09-25T12:56:42.710Z,0.20
2022-09-25T12:59:13.938Z,0.40
2022-09-25T13:01:46.534Z,0.38
2022-09-25T13:04:24.732Z,0.60
2022-09-25T13:06:54.717Z,0.40
2022-09-25T13:09:37.768Z,0.52
2022-09-25T13:12:09.417Z,0.40
2022-09-25T13:14:41.858Z,0.98
2022-09-25T13:17:12.795Z,0.30
2022-09-25T13:19:41.326Z,0.40
2022-09-25T13:22:12.604Z,0.35
2022-09-25T13:24:44.723Z,0.30
2022-09-25T13:27:16.245Z,0.43
2022-09-25T13:29:45.579Z,0.30
2022-09-25T13:32:17.750Z,0.40
2022-09-25T13:34:46.472Z,0.40
2022-09-25T13:37:16.682Z,0.20
2022-09-25T13:40:04.823Z,0.50
2022-09-25T13:42:36.028Z,0.50
2022-09-25T13:45:09.274Z,0.52
2022-09-25T13:47:55.476Z,0.30
2022-09-25T13:50:29.298Z,0.47
2022-09-25T13:53:18.808Z,0.57
2022-09-25T13:56:02.166Z,0.40
2022-09-25T13:58:32.338Z,0.40
2022-09-25T14:01:02.817Z,0.50
2022-09-25T14:03:32.886Z,0.30
2022-09-25T14:06:02.807Z,0.30
2022-09-25T14:08:32.980Z,0.30
2022-09-25T14:11:04.353Z,0.57
2022-09-25T14:13:33.316Z,0.50
2022-09-25T14:16:03.715Z,0.43
2022-09-25T14:18:36.299Z,0.40
2022-09-25T14:21:09.783Z,0.40
2022-09-25T14:23:48.965Z,0.32
2022-09-25T14:26:21.723Z,0.40
2022-09-25T14:28:51.057Z,0.52
2022-09-25T14:31:30.434Z,0.55
2022-09-25T14:34:25.838Z,0.50
2022-09-25T14:37:01.502Z,0.40
2022-09-25T14:39:31.063Z,0.60
2022-09-25T14:42:10.162Z,0.50
2022-09-25T14:44:49.108Z,0.45
2022-09-25T14:47:18.283Z,0.20
2022-09-25T14:49:48.316Z,0.45
2022-09-25T14:52:21.865Z,0.30
2022-09-25T14:54:50.887Z,0.47
2022-09-25T14:57:24.761Z,0.38
2022-09-25T14:59:55.540Z,0.47
2022-09-25T15:02:25.725Z,0.40
2022-09-25T15:04:58.587Z,0.50
2022-09-25T15:07:29.102Z,0.50
2022-09-25T15:09:59.195Z,0.47
2022-09-25T15:12:29.704Z,0.43
2022-09-25T15:15:02.066Z,0.55
2022-09-25T15:17:31.225Z,0.65
2022-09-25T15:20:00.285Z,0.43
2022-09-25T15:22:32.659Z,0.70
2022-09-25T15:25:03.358Z,0.60
2022-09-25T15:27:31.970Z,0.50
2022-09-25T15:30:02.167Z,0.50
2022-09-25T15:32:35.277Z,0.50
2022-09-25T15:35:07.524Z,0.45
2022-09-25T15:37:38.683Z,0.70
2022-09-25T15:40:13.939Z,0.43
2022-09-25T15:42:45.523Z,0.60
2022-09-25T15:45:29.797Z,0.40
2022-09-25T15:47:58.045Z,0.52
2022-09-25T15:50:28.743Z,1.45
2022-09-25T15:53:02.762Z,0.70
2022-09-25T15:55:32.678Z,0.75
2022-09-25T15:58:06.916Z,0.60
2022-09-25T16:00:52.706Z,0.53
2022-09-25T16:03:45.651Z,0.70
2022-09-25T16:06:15.186Z,0.90
2022-09-25T16:08:45.257Z,1.43
2022-09-25T16:11:20.504Z,0.57
2022-09-25T16:13:51.702Z,0.93
2022-09-25T16:16:24.975Z,0.70
2022-09-25T16:18:54.615Z,0.40
2022-09-25T16:21:25.158Z,0.40
2022-09-25T16:23:56.564Z,0.50
2022-09-25T16:26:26.084Z,0.60
2022-09-25T16:29:00.881Z,0.50
2022-09-25T16:31:29.521Z,0.77
2022-09-25T16:33:58.182Z,0.50
2022-09-25T16:36:27.580Z,0.50
2022-09-25T16:39:12.205Z,0.77
2022-09-25T16:41:42.458Z,0.50
2022-09-25T16:44:14.782Z,0.60
2022-09-25T16:46:43.587Z,0.53
2022-09-25T16:49:13.079Z,0.80
2022-09-25T16:51:45.839Z,0.57
2022-09-25T16:54:16.316Z,0.70
2022-09-25T16:56:45.051Z,1.08
2022-09-25T16:59:17.397Z,0.70
2022-09-25T17:01:46.261Z,0.38
2022-09-25T17:04:15.628Z,0.47
2022-09-25T17:06:44.381Z,0.60
2022-09-25T17:09:13.422Z,0.50
2022-09-25T17:11:44.426Z,0.73
2022-09-25T17:14:18.229Z,0.80
2022-09-25T17:16:46.525Z,0.82
2022-09-25T17:19:18.012Z,0.77
2022-09-25T17:21:51.388Z,0.50
2022-09-25T17:24:20.534Z,0.80
2022-09-25T17:26:50.397Z,0.80
2022-09-25T17:29:18.757Z,0.75
2022-09-25T17:31:47.160Z,0.63
2022-09-25T17:34:17.868Z,0.80
2022-09-25T17:36:46.235Z,0.90
2022-09-25T17:39:14.895Z,0.67
2022-09-25T17:41:43.547Z,1.00
2022-09-25T17:44:14.823Z,1.03
2022-09-25T17:46:43.527Z,1.00
2022-09-25T17:49:12.043Z,0.90
2022-09-25T17:51:40.716Z,1.10
2022-09-25T17:54:09.458Z,1.00
2022-09-25T17:56:39.702Z,1.38
2022-09-25T17:59:09.330Z,1.20
2022-09-25T18:01:40.211Z,1.10
2022-09-25T18:04:17.679Z,1.13
2022-09-25T18:06:46.035Z,1.00
2022-09-25T18:09:14.594Z,1.00
2022-09-25T18:11:44.242Z,1.20
2022-09-25T18:14:13.762Z,1.10
2022-09-25T18:16:45.343Z,1.00
2022-09-25T18:19:35.612Z,1.10
2022-09-25T18:22:21.710Z,1.10
2022-09-25T18:24:52.871Z,1.38
2022-09-25T18:27:21.390Z,1.70
2022-09-25T18:29:49.866Z,1.63
2022-09-25T18:32:19.670Z,1.97
2022-09-25T18:34:47.921Z,1.60
2022-09-25T18:37:16.550Z,2.27
2022-09-25T18:39:46.167Z,1.23
2022-09-25T18:42:14.524Z,1.20
2022-09-25T18:44:43.409Z,0.98
2022-09-25T18:47:12.039Z,1.10
2022-09-25T18:49:42.570Z,0.93
2022-09-25T18:52:11.732Z,1.00
2022-09-25T18:54:42.036Z,1.10
2022-09-25T18:57:11.167Z,1.07
2022-09-25T18:59:42.131Z,1.60
2022-09-25T19:02:19.458Z,1.20
2022-09-25T19:04:49.601Z,1.70
2022-09-25T19:07:18.844Z,1.30
2022-09-25T19:09:55.660Z,1.50
2022-09-25T19:12:25.705Z,1.20
2022-09-25T19:14:54.118Z,1.30
2022-09-25T19:17:22.887Z,1.40
2022-09-25T19:19:53.405Z,1.10
2022-09-25T19:22:24.263Z,0.80
2022-09-25T19:24:52.894Z,1.10
2022-09-25T19:27:21.335Z,1.13
2022-09-25T19:29:53.244Z,1.67
2022-09-25T19:32:21.637Z,1.10
2022-09-25T19:34:50.044Z,1.40
2022-09-25T19:37:20.655Z,1.20
2022-09-25T19:40:18.124Z,1.50
2022-09-25T19:42:46.934Z,1.20
2022-09-25T19:45:15.362Z,1.30
2022-09-25T19:47:43.883Z,1.30
2022-09-25T19:50:12.907Z,1.25
2022-09-25T19:52:44.124Z,1.20
2022-09-25T19:55:14.141Z,1.27
2022-09-25T19:57:44.181Z,1.17
2022-09-25T20:00:18.335Z,1.30
2022-09-25T20:02:47.619Z,1.40
2022-09-25T20:05:17.139Z,1.40
2022-09-25T20:07:46.819Z,1.70
2022-09-25T20:10:15.194Z,1.40
2022-09-25T20:12:43.464Z,1.33
2022-09-25T20:15:12.139Z,1.50
2022-09-25T20:17:40.435Z,1.40
2022-09-25T20:20:08.832Z,1.50
2022-09-25T20:22:37.170Z,1.50
2022-09-25T20:25:07.148Z,1.30
2022-09-25T20:27:35.628Z,1.73
2022-09-25T20:30:04.041Z,1.47
2022-09-25T20:32:32.838Z,1.23
2022-09-25T20:35:01.121Z,1.33
2022-09-25T20:37:29.479Z,1.57
2022-09-25T20:39:58.426Z,1.20
2022-09-25T20:42:28.435Z,1.17
2022-09-25T20:44:56.967Z,1.17
2022-09-25T20:47:25.245Z,1.60
2022-09-25T20:49:53.563Z,1.40
2022-09-25T20:52:21.757Z,1.00
2022-09-25T20:54:49.966Z,1.43
2022-09-25T20:57:18.506Z,1.75
2022-09-25T20:59:48.081Z,1.33
2022-09-25T21:02:16.358Z,1.43
2022-09-25T21:04:45.764Z,1.40
2022-09-25T21:07:16.991Z,1.53
2022-09-25T21:09:45.671Z,1.77
2022-09-25T21:12:14.368Z,1.93
2022-09-25T21:14:42.864Z,1.77
2022-09-25T21:17:13.161Z,1.60
2022-09-25T21:19:41.623Z,1.53
2022-09-25T21:22:09.848Z,1.63
2022-09-25T21:24:39.486Z,1.60
2022-09-25T21:27:07.930Z,1.77
2022-09-25T21:29:36.132Z,1.37
2022-09-25T21:32:04.654Z,1.80
2022-09-25T21:34:34.421Z,1.47
2022-09-25T21:37:02.722Z,1.60
2022-09-25T21:39:31.059Z,1.60
2022-09-25T21:41:59.422Z,1.30
2022-09-25T21:44:27.619Z,1.40
2022-09-25T21:46:55.799Z,1.63
2022-09-25T21:49:24.267Z,1.77
2022-09-25T21:51:53.813Z,1.50
2022-09-25T21:54:22.176Z,1.73
2022-09-25T21:56:50.405Z,1.57
2022-09-25T21:59:18.827Z,1.80
2022-09-25T22:01:47.191Z,1.87
2022-09-25T22:04:15.995Z,1.73
2022-09-25T22:06:45.343Z,1.77
2022-09-25T22:09:16.482Z,1.70
2022-09-25T22:11:45.086Z,1.53
2022-09-25T22:14:16.122Z,1.80
2022-09-25T22:16:45.553Z,1.40
2022-09-25T22:19:15.959Z,1.57
2022-09-25T22:21:45.265Z,1.40
2022-09-25T22:24:14.836Z,1.43
2022-09-25T22:26:44.436Z,1.40
2022-09-25T22:29:12.823Z,1.60
2022-09-25T22:31:43.202Z,1.20
2022-09-25T22:34:15.643Z,1.30
2022-09-25T22:36:43.885Z,0.97
2022-09-25T22:39:13.847Z,1.80
2022-09-25T22:41:43.672Z,1.37
2022-09-25T22:44:12.057Z,1.20
2022-09-25T22:46:40.248Z,0.93
2022-09-25T22:49:08.661Z,1.30
2022-09-25T22:51:36.905Z,1.33
2022-09-25T22:54:05.241Z,1.00
2022-09-25T22:56:34.108Z,1.13
2022-09-25T22:59:05.935Z,1.00
2022-09-25T23:01:36.692Z,1.00
2022-09-25T23:04:06.518Z,1.10
2022-09-25T23:06:36.819Z,1.20
2022-09-25T23:09:06.154Z,1.20
2022-09-25T23:11:34.860Z,1.30
2022-09-25T23:14:05.583Z,1.20
2022-09-25T23:16:34.317Z,1.10
2022-09-25T23:19:02.948Z,1.30
2022-09-25T23:21:31.807Z,1.00
2022-09-25T23:24:01.081Z,1.00
2022-09-25T23:26:29.511Z,1.00
2022-09-25T23:28:59.424Z,1.00
2022-09-25T23:31:30.108Z,1.00
2022-09-25T23:33:59.796Z,0.90
2022-09-25T23:36:28.289Z,1.23
2022-09-25T23:38:57.111Z,0.90
2022-09-25T23:41:26.277Z,0.93
2022-09-25T23:43:55.118Z,0.63
2022-09-25T23:46:24.864Z,1.07
2022-09-25T23:48:55.249Z,1.20
2022-09-25T23:51:23.854Z,1.00
2022-09-25T23:53:52.034Z,1.00
2022-09-25T23:56:21.063Z,0.83
2022-09-25T23:58:49.933Z,1.10
